sensor_id;sensor_type;location;lat;lon;timestamp;temperature;humidity
5560;DHT22;2803;47.916;8.074;2023-07-31T00:02:24;17.90;99.90
5560;DHT22;2803;47.916;8.074;2023-07-31T00:04:51;17.90;99.90
5560;DHT22;2803;47.916;8.074;2023-07-31T00:07:17;18.00;99.90
5560;DHT22;2803;47.916;8.074;2023-07-31T00:09:44;18.10;99.90
5560;DHT22;2803;47.916;8.074;2023-07-31T00:12:12;17.90;99.90
5560;DHT22;2803;47.916;8.074;2023-07-31T00:14:38;17.80;99.90
5560;DHT22;2803;47.916;8.074;2023-07-31T00:17:05;17.80;99.90
5560;DHT22;2803;47.916;8.074;2023-07-31T00:19:32;17.20;99.90
5560;DHT22;2803;47.916;8.074;2023-07-31T00:21:58;17.40;99.90
5560;DHT22;2803;47.916;8.074;2023-07-31T00:24:25;17.10;99.90
5560;DHT22;2803;47.916;8.074;2023-07-31T00:26:52;17.20;99.90
5560;DHT22;2803;47.916;8.074;2023-07-31T00:29:20;17.40;99.90
5560;DHT22;2803;47.916;8.074;2023-07-31T00:31:47;17.30;99.90
5560;DHT22;2803;47.916;8.074;2023-07-31T00:34:13;17.20;99.90
5560;DHT22;2803;47.916;8.074;2023-07-31T00:36:40;17.20;99.90
5560;DHT22;2803;47.916;8.074;2023-07-31T00:39:07;17.40;99.90
5560;DHT22;2803;47.916;8.074;2023-07-31T00:41:33;17.50;99.90
5560;DHT22;2803;47.916;8.074;2023-07-31T00:44:00;17.50;99.90
5560;DHT22;2803;47.916;8.074;2023-07-31T00:46:28;17.60;99.90
5560;DHT22;2803;47.916;8.074;2023-07-31T00:48:55;17.60;99.90
5560;DHT22;2803;47.916;8.074;2023-07-31T00:51:22;17.00;99.90
5560;DHT22;2803;47.916;8.074;2023-07-31T00:53:48;17.40;99.90
5560;DHT22;2803;47.916;8.074;2023-07-31T00:56:15;17.40;99.90
5560;DHT22;2803;47.916;8.074;2023-07-31T00:58:42;17.20;99.90
5560;DHT22;2803;47.916;8.074;2023-07-31T01:01:09;17.30;99.90
5560;DHT22;2803;47.916;8.074;2023-07-31T01:03:37;17.30;99.90
5560;DHT22;2803;47.916;8.074;2023-07-31T01:06:14;17.30;99.90
5560;DHT22;2803;47.916;8.074;2023-07-31T01:08:48;17.40;99.90
5560;DHT22;2803;47.916;8.074;2023-07-31T01:11:19;17.50;99.90
5560;DHT22;2803;47.916;8.074;2023-07-31T01:13:48;17.30;99.90
5560;DHT22;2803;47.916;8.074;2023-07-31T01:16:15;17.20;99.90
5560;DHT22;2803;47.916;8.074;2023-07-31T01:18:43;17.10;99.90
5560;DHT22;2803;47.916;8.074;2023-07-31T01:21:21;17.20;99.90
5560;DHT22;2803;47.916;8.074;2023-07-31T01:24:03;16.90;99.90
5560;DHT22;2803;47.916;8.074;2023-07-31T01:26:38;17.00;99.90
5560;DHT22;2803;47.916;8.074;2023-07-31T01:29:12;16.80;99.90
5560;DHT22;2803;47.916;8.074;2023-07-31T01:31:41;16.50;99.90
5560;DHT22;2803;47.916;8.074;2023-07-31T01:34:09;16.80;99.90
5560;DHT22;2803;47.916;8.074;2023-07-31T01:36:36;16.90;99.90
5560;DHT22;2803;47.916;8.074;2023-07-31T01:39:03;16.90;99.90
5560;DHT22;2803;47.916;8.074;2023-07-31T01:41:30;16.60;99.90
5560;DHT22;2803;47.916;8.074;2023-07-31T01:43:58;16.50;99.90
5560;DHT22;2803;47.916;8.074;2023-07-31T01:46:25;16.50;99.90
5560;DHT22;2803;47.916;8.074;2023-07-31T01:48:51;16.70;99.90
5560;DHT22;2803;47.916;8.074;2023-07-31T01:51:18;16.60;99.90
5560;DHT22;2803;47.916;8.074;2023-07-31T01:53:45;16.40;99.90
5560;DHT22;2803;47.916;8.074;2023-07-31T01:56:11;15.90;99.90
5560;DHT22;2803;47.916;8.074;2023-07-31T01:58:38;15.70;99.90
5560;DHT22;2803;47.916;8.074;2023-07-31T02:01:06;16.00;99.90
5560;DHT22;2803;47.916;8.074;2023-07-31T02:03:32;16.20;99.90
5560;DHT22;2803;47.916;8.074;2023-07-31T02:05:59;16.30;99.90
5560;DHT22;2803;47.916;8.074;2023-07-31T02:08:26;16.20;99.90
5560;DHT22;2803;47.916;8.074;2023-07-31T02:10:53;15.70;99.90
5560;DHT22;2803;47.916;8.074;2023-07-31T02:13:20;15.80;99.90
5560;DHT22;2803;47.916;8.074;2023-07-31T02:15:47;15.90;99.90
5560;DHT22;2803;47.916;8.074;2023-07-31T02:18:15;15.90;99.90
5560;DHT22;2803;47.916;8.074;2023-07-31T02:20:42;15.80;99.90
5560;DHT22;2803;47.916;8.074;2023-07-31T02:23:11;16.00;99.90
5560;DHT22;2803;47.916;8.074;2023-07-31T02:25:38;16.20;99.90
5560;DHT22;2803;47.916;8.074;2023-07-31T02:28:05;16.30;99.90
5560;DHT22;2803;47.916;8.074;2023-07-31T02:30:31;15.80;99.90
5560;DHT22;2803;47.916;8.074;2023-07-31T02:32:58;15.80;99.90
5560;DHT22;2803;47.916;8.074;2023-07-31T02:35:26;15.80;99.90
5560;DHT22;2803;47.916;8.074;2023-07-31T02:37:52;16.20;99.90
5560;DHT22;2803;47.916;8.074;2023-07-31T02:40:19;16.10;99.90
5560;DHT22;2803;47.916;8.074;2023-07-31T02:42:46;16.20;99.90
5560;DHT22;2803;47.916;8.074;2023-07-31T02:45:12;16.40;99.90
5560;DHT22;2803;47.916;8.074;2023-07-31T02:47:39;16.40;99.90
5560;DHT22;2803;47.916;8.074;2023-07-31T02:50:06;16.00;99.90
5560;DHT22;2803;47.916;8.074;2023-07-31T02:52:34;16.20;99.90
5560;DHT22;2803;47.916;8.074;2023-07-31T02:55:01;16.20;99.90
5560;DHT22;2803;47.916;8.074;2023-07-31T02:57:28;16.40;99.90
5560;DHT22;2803;47.916;8.074;2023-07-31T02:59:54;16.30;99.90
5560;DHT22;2803;47.916;8.074;2023-07-31T03:02:21;16.10;99.90
5560;DHT22;2803;47.916;8.074;2023-07-31T03:04:47;15.90;99.90
5560;DHT22;2803;47.916;8.074;2023-07-31T03:07:14;15.80;99.90
5560;DHT22;2803;47.916;8.074;2023-07-31T03:09:42;15.70;99.90
5560;DHT22;2803;47.916;8.074;2023-07-31T03:12:09;16.00;99.90
5560;DHT22;2803;47.916;8.074;2023-07-31T03:14:35;16.10;99.90
5560;DHT22;2803;47.916;8.074;2023-07-31T03:17:02;15.90;99.90
5560;DHT22;2803;47.916;8.074;2023-07-31T03:19:30;16.10;99.90
5560;DHT22;2803;47.916;8.074;2023-07-31T03:21:57;16.00;99.90
5560;DHT22;2803;47.916;8.074;2023-07-31T03:24:24;16.10;99.90
5560;DHT22;2803;47.916;8.074;2023-07-31T03:26:52;15.70;99.90
5560;DHT22;2803;47.916;8.074;2023-07-31T03:29:18;16.00;99.90
5560;DHT22;2803;47.916;8.074;2023-07-31T03:31:45;15.90;99.90
5560;DHT22;2803;47.916;8.074;2023-07-31T03:34:12;16.00;99.90
5560;DHT22;2803;47.916;8.074;2023-07-31T03:36:38;16.00;99.90
5560;DHT22;2803;47.916;8.074;2023-07-31T03:39:05;16.00;99.90
5560;DHT22;2803;47.916;8.074;2023-07-31T03:41:32;15.80;99.90
5560;DHT22;2803;47.916;8.074;2023-07-31T03:43:59;15.80;99.90
5560;DHT22;2803;47.916;8.074;2023-07-31T03:46:26;15.70;99.90
5560;DHT22;2803;47.916;8.074;2023-07-31T03:48:53;15.60;99.90
5560;DHT22;2803;47.916;8.074;2023-07-31T03:51:20;15.60;99.90
5560;DHT22;2803;47.916;8.074;2023-07-31T03:53:46;15.60;99.90
5560;DHT22;2803;47.916;8.074;2023-07-31T03:56:13;15.70;99.90
5560;DHT22;2803;47.916;8.074;2023-07-31T03:58:40;15.50;99.90
5560;DHT22;2803;47.916;8.074;2023-07-31T04:01:08;15.80;99.90
5560;DHT22;2803;47.916;8.074;2023-07-31T04:03:35;15.50;99.90
5560;DHT22;2803;47.916;8.074;2023-07-31T04:06:01;15.70;99.90
5560;DHT22;2803;47.916;8.074;2023-07-31T04:08:28;15.70;99.90
5560;DHT22;2803;47.916;8.074;2023-07-31T04:10:54;16.00;99.90
5560;DHT22;2803;47.916;8.074;2023-07-31T04:13:22;16.00;99.90
5560;DHT22;2803;47.916;8.074;2023-07-31T04:15:49;15.90;99.90
5560;DHT22;2803;47.916;8.074;2023-07-31T04:18:17;16.10;99.90
5560;DHT22;2803;47.916;8.074;2023-07-31T04:20:44;16.00;99.90
5560;DHT22;2803;47.916;8.074;2023-07-31T04:23:11;15.80;99.90
5560;DHT22;2803;47.916;8.074;2023-07-31T04:25:37;15.90;99.90
5560;DHT22;2803;47.916;8.074;2023-07-31T04:28:04;16.20;99.90
5560;DHT22;2803;47.916;8.074;2023-07-31T04:30:31;16.30;99.90
5560;DHT22;2803;47.916;8.074;2023-07-31T04:32:57;16.40;99.90
5560;DHT22;2803;47.916;8.074;2023-07-31T04:35:26;16.10;99.90
5560;DHT22;2803;47.916;8.074;2023-07-31T04:37:53;16.30;99.90
5560;DHT22;2803;47.916;8.074;2023-07-31T04:40:20;16.30;99.90
5560;DHT22;2803;47.916;8.074;2023-07-31T04:42:47;16.40;99.90
5560;DHT22;2803;47.916;8.074;2023-07-31T04:45:14;16.50;99.90
5560;DHT22;2803;47.916;8.074;2023-07-31T04:47:40;16.30;99.90
5560;DHT22;2803;47.916;8.074;2023-07-31T04:50:08;16.10;99.90
5560;DHT22;2803;47.916;8.074;2023-07-31T04:52:36;16.30;99.90
5560;DHT22;2803;47.916;8.074;2023-07-31T04:55:02;16.30;99.90
5560;DHT22;2803;47.916;8.074;2023-07-31T04:57:29;16.30;99.90
5560;DHT22;2803;47.916;8.074;2023-07-31T04:59:56;16.60;99.90
5560;DHT22;2803;47.916;8.074;2023-07-31T05:02:22;16.60;99.90
5560;DHT22;2803;47.916;8.074;2023-07-31T05:04:50;16.70;99.90
5560;DHT22;2803;47.916;8.074;2023-07-31T05:07:16;16.90;99.90
5560;DHT22;2803;47.916;8.074;2023-07-31T05:09:44;16.90;99.90
5560;DHT22;2803;47.916;8.074;2023-07-31T05:12:11;17.00;99.90
5560;DHT22;2803;47.916;8.074;2023-07-31T05:14:38;17.10;99.90
5560;DHT22;2803;47.916;8.074;2023-07-31T05:17:05;17.10;99.90
5560;DHT22;2803;47.916;8.074;2023-07-31T05:19:31;17.10;99.90
5560;DHT22;2803;47.916;8.074;2023-07-31T05:21:58;16.90;99.90
5560;DHT22;2803;47.916;8.074;2023-07-31T05:24:25;17.00;99.90
5560;DHT22;2803;47.916;8.074;2023-07-31T05:26:53;17.10;99.90
5560;DHT22;2803;47.916;8.074;2023-07-31T05:29:19;17.30;99.90
5560;DHT22;2803;47.916;8.074;2023-07-31T05:31:46;17.30;99.90
5560;DHT22;2803;47.916;8.074;2023-07-31T05:34:13;17.40;99.90
5560;DHT22;2803;47.916;8.074;2023-07-31T05:36:39;17.40;99.90
5560;DHT22;2803;47.916;8.074;2023-07-31T05:39:06;17.50;99.90
5560;DHT22;2803;47.916;8.074;2023-07-31T05:41:34;17.20;99.90
5560;DHT22;2803;47.916;8.074;2023-07-31T05:44:03;17.00;99.90
5560;DHT22;2803;47.916;8.074;2023-07-31T05:46:29;17.40;99.90
5560;DHT22;2803;47.916;8.074;2023-07-31T05:48:57;17.60;99.90
5560;DHT22;2803;47.916;8.074;2023-07-31T05:51:26;17.80;99.90
5560;DHT22;2803;47.916;8.074;2023-07-31T05:53:52;17.90;99.90
5560;DHT22;2803;47.916;8.074;2023-07-31T05:56:19;18.00;99.90
5560;DHT22;2803;47.916;8.074;2023-07-31T05:58:46;18.00;99.90
5560;DHT22;2803;47.916;8.074;2023-07-31T06:01:16;18.00;99.90
5560;DHT22;2803;47.916;8.074;2023-07-31T06:03:43;18.20;99.90
5560;DHT22;2803;47.916;8.074;2023-07-31T06:06:10;18.40;99.90
5560;DHT22;2803;47.916;8.074;2023-07-31T06:08:38;18.50;99.90
5560;DHT22;2803;47.916;8.074;2023-07-31T06:11:06;18.60;99.90
5560;DHT22;2803;47.916;8.074;2023-07-31T06:13:34;18.60;99.90
5560;DHT22;2803;47.916;8.074;2023-07-31T06:16:01;18.50;99.90
5560;DHT22;2803;47.916;8.074;2023-07-31T06:18:33;18.60;99.90
5560;DHT22;2803;47.916;8.074;2023-07-31T06:20:59;18.70;99.90
5560;DHT22;2803;47.916;8.074;2023-07-31T06:23:26;18.80;99.90
5560;DHT22;2803;47.916;8.074;2023-07-31T06:25:53;18.90;99.90
5560;DHT22;2803;47.916;8.074;2023-07-31T06:28:19;18.90;99.90
5560;DHT22;2803;47.916;8.074;2023-07-31T06:30:46;19.20;99.90
5560;DHT22;2803;47.916;8.074;2023-07-31T06:33:13;19.30;99.90
5560;DHT22;2803;47.916;8.074;2023-07-31T06:35:41;19.50;99.90
5560;DHT22;2803;47.916;8.074;2023-07-31T06:38:08;19.40;99.90
5560;DHT22;2803;47.916;8.074;2023-07-31T06:40:34;19.50;99.90
5560;DHT22;2803;47.916;8.074;2023-07-31T06:43:01;19.60;99.90
5560;DHT22;2803;47.916;8.074;2023-07-31T06:45:34;19.70;99.90
5560;DHT22;2803;47.916;8.074;2023-07-31T06:48:01;19.60;99.90
5560;DHT22;2803;47.916;8.074;2023-07-31T06:50:28;19.80;99.90
5560;DHT22;2803;47.916;8.074;2023-07-31T06:52:56;20.00;99.90
5560;DHT22;2803;47.916;8.074;2023-07-31T06:55:23;20.10;99.90
5560;DHT22;2803;47.916;8.074;2023-07-31T06:57:52;20.20;99.90
5560;DHT22;2803;47.916;8.074;2023-07-31T07:00:20;20.30;99.90
5560;DHT22;2803;47.916;8.074;2023-07-31T07:02:47;20.20;99.90
5560;DHT22;2803;47.916;8.074;2023-07-31T07:05:14;20.20;99.90
5560;DHT22;2803;47.916;8.074;2023-07-31T07:07:41;20.30;99.90
5560;DHT22;2803;47.916;8.074;2023-07-31T07:10:10;20.40;99.90
5560;DHT22;2803;47.916;8.074;2023-07-31T07:12:36;20.50;99.90
5560;DHT22;2803;47.916;8.074;2023-07-31T07:15:03;20.50;99.90
5560;DHT22;2803;47.916;8.074;2023-07-31T07:17:30;20.40;99.90
5560;DHT22;2803;47.916;8.074;2023-07-31T07:19:57;19.90;99.90
5560;DHT22;2803;47.916;8.074;2023-07-31T07:22:24;20.00;99.90
5560;DHT22;2803;47.916;8.074;2023-07-31T07:24:51;20.00;99.90
5560;DHT22;2803;47.916;8.074;2023-07-31T07:27:19;19.70;99.90
5560;DHT22;2803;47.916;8.074;2023-07-31T07:29:46;19.40;99.90
5560;DHT22;2803;47.916;8.074;2023-07-31T07:32:13;19.70;99.90
5560;DHT22;2803;47.916;8.074;2023-07-31T07:34:39;19.50;99.90
5560;DHT22;2803;47.916;8.074;2023-07-31T07:37:06;19.60;99.90
5560;DHT22;2803;47.916;8.074;2023-07-31T07:39:34;19.80;99.90
5560;DHT22;2803;47.916;8.074;2023-07-31T07:42:00;19.70;99.90
5560;DHT22;2803;47.916;8.074;2023-07-31T07:44:28;19.70;99.90
5560;DHT22;2803;47.916;8.074;2023-07-31T07:46:55;20.20;99.90
5560;DHT22;2803;47.916;8.074;2023-07-31T07:49:21;20.40;99.90
5560;DHT22;2803;47.916;8.074;2023-07-31T07:51:48;20.70;99.90
5560;DHT22;2803;47.916;8.074;2023-07-31T07:54:15;20.90;99.90
5560;DHT22;2803;47.916;8.074;2023-07-31T07:56:42;20.50;99.90
5560;DHT22;2803;47.916;8.074;2023-07-31T07:59:09;20.50;99.90
5560;DHT22;2803;47.916;8.074;2023-07-31T08:01:37;20.70;99.90
5560;DHT22;2803;47.916;8.074;2023-07-31T08:04:04;20.40;99.90
5560;DHT22;2803;47.916;8.074;2023-07-31T08:06:30;20.60;99.90
5560;DHT22;2803;47.916;8.074;2023-07-31T08:08:57;20.10;99.90
5560;DHT22;2803;47.916;8.074;2023-07-31T08:11:24;20.40;99.90
5560;DHT22;2803;47.916;8.074;2023-07-31T08:13:50;20.50;99.90
5560;DHT22;2803;47.916;8.074;2023-07-31T08:16:17;20.50;99.90
5560;DHT22;2803;47.916;8.074;2023-07-31T08:18:45;20.20;99.90
5560;DHT22;2803;47.916;8.074;2023-07-31T08:21:12;20.20;99.90
5560;DHT22;2803;47.916;8.074;2023-07-31T08:23:39;20.80;99.90
5560;DHT22;2803;47.916;8.074;2023-07-31T08:26:05;21.10;99.90
5560;DHT22;2803;47.916;8.074;2023-07-31T08:28:32;21.00;99.90
5560;DHT22;2803;47.916;8.074;2023-07-31T08:31:00;20.60;99.90
5560;DHT22;2803;47.916;8.074;2023-07-31T08:33:27;21.00;99.90
5560;DHT22;2803;47.916;8.074;2023-07-31T08:35:55;21.50;99.90
5560;DHT22;2803;47.916;8.074;2023-07-31T08:38:22;21.40;99.90
5560;DHT22;2803;47.916;8.074;2023-07-31T08:40:51;21.20;99.90
5560;DHT22;2803;47.916;8.074;2023-07-31T08:43:18;20.60;99.90
5560;DHT22;2803;47.916;8.074;2023-07-31T08:45:45;20.40;99.90
5560;DHT22;2803;47.916;8.074;2023-07-31T08:48:15;20.60;99.90
5560;DHT22;2803;47.916;8.074;2023-07-31T08:50:42;20.60;99.90
5560;DHT22;2803;47.916;8.074;2023-07-31T08:53:10;20.80;99.90
5560;DHT22;2803;47.916;8.074;2023-07-31T08:55:37;20.50;99.90
5560;DHT22;2803;47.916;8.074;2023-07-31T08:58:05;20.30;99.90
5560;DHT22;2803;47.916;8.074;2023-07-31T09:00:32;20.60;99.90
5560;DHT22;2803;47.916;8.074;2023-07-31T09:03:01;20.30;99.90
5560;DHT22;2803;47.916;8.074;2023-07-31T09:05:30;20.10;99.90
5560;DHT22;2803;47.916;8.074;2023-07-31T09:07:58;20.50;99.90
5560;DHT22;2803;47.916;8.074;2023-07-31T09:10:26;21.00;99.90
5560;DHT22;2803;47.916;8.074;2023-07-31T09:12:52;20.90;99.90
5560;DHT22;2803;47.916;8.074;2023-07-31T09:15:19;20.90;99.90
5560;DHT22;2803;47.916;8.074;2023-07-31T09:17:46;20.40;99.90
5560;DHT22;2803;47.916;8.074;2023-07-31T09:20:14;20.80;99.90
5560;DHT22;2803;47.916;8.074;2023-07-31T09:22:42;21.00;99.90
5560;DHT22;2803;47.916;8.074;2023-07-31T09:25:15;21.30;99.90
5560;DHT22;2803;47.916;8.074;2023-07-31T09:27:53;21.70;99.90
5560;DHT22;2803;47.916;8.074;2023-07-31T09:30:21;22.00;99.90
5560;DHT22;2803;47.916;8.074;2023-07-31T09:32:50;22.00;99.90
5560;DHT22;2803;47.916;8.074;2023-07-31T09:35:22;22.20;99.90
5560;DHT22;2803;47.916;8.074;2023-07-31T09:37:50;22.10;99.90
5560;DHT22;2803;47.916;8.074;2023-07-31T09:40:33;22.40;99.90
5560;DHT22;2803;47.916;8.074;2023-07-31T09:43:03;22.90;99.90
5560;DHT22;2803;47.916;8.074;2023-07-31T09:45:34;22.70;99.90
5560;DHT22;2803;47.916;8.074;2023-07-31T09:48:01;23.10;99.90
5560;DHT22;2803;47.916;8.074;2023-07-31T09:50:29;23.00;99.90
5560;DHT22;2803;47.916;8.074;2023-07-31T09:52:56;23.20;99.90
5560;DHT22;2803;47.916;8.074;2023-07-31T09:55:23;23.60;99.90
5560;DHT22;2803;47.916;8.074;2023-07-31T09:57:50;23.90;99.90
5560;DHT22;2803;47.916;8.074;2023-07-31T10:00:19;24.00;99.90
5560;DHT22;2803;47.916;8.074;2023-07-31T10:02:51;23.90;99.90
5560;DHT22;2803;47.916;8.074;2023-07-31T10:05:19;24.20;99.90
5560;DHT22;2803;47.916;8.074;2023-07-31T10:07:52;23.60;99.90
5560;DHT22;2803;47.916;8.074;2023-07-31T10:10:20;23.30;99.90
5560;DHT22;2803;47.916;8.074;2023-07-31T10:12:48;23.70;99.90
5560;DHT22;2803;47.916;8.074;2023-07-31T10:15:15;23.70;99.90
5560;DHT22;2803;47.916;8.074;2023-07-31T10:17:44;24.30;99.90
5560;DHT22;2803;47.916;8.074;2023-07-31T10:20:13;25.10;99.90
5560;DHT22;2803;47.916;8.074;2023-07-31T10:22:42;25.00;99.90
5560;DHT22;2803;47.916;8.074;2023-07-31T10:25:09;24.40;99.90
5560;DHT22;2803;47.916;8.074;2023-07-31T10:27:38;24.30;99.90
5560;DHT22;2803;47.916;8.074;2023-07-31T10:30:08;24.90;99.90
5560;DHT22;2803;47.916;8.074;2023-07-31T10:32:36;25.20;99.90
5560;DHT22;2803;47.916;8.074;2023-07-31T10:35:06;24.80;99.90
5560;DHT22;2803;47.916;8.074;2023-07-31T10:37:37;24.60;99.90
5560;DHT22;2803;47.916;8.074;2023-07-31T10:40:05;24.70;99.90
5560;DHT22;2803;47.916;8.074;2023-07-31T10:42:34;24.60;99.90
5560;DHT22;2803;47.916;8.074;2023-07-31T10:45:03;25.10;99.90
5560;DHT22;2803;47.916;8.074;2023-07-31T10:47:30;25.00;99.90
5560;DHT22;2803;47.916;8.074;2023-07-31T10:50:15;24.80;99.90
5560;DHT22;2803;47.916;8.074;2023-07-31T10:52:46;25.60;99.90
5560;DHT22;2803;47.916;8.074;2023-07-31T10:55:15;26.40;99.90
5560;DHT22;2803;47.916;8.074;2023-07-31T10:57:44;27.00;99.90
5560;DHT22;2803;47.916;8.074;2023-07-31T11:00:21;27.30;99.90
5560;DHT22;2803;47.916;8.074;2023-07-31T11:03:04;27.10;98.10
5560;DHT22;2803;47.916;8.074;2023-07-31T11:05:49;26.20;98.60
5560;DHT22;2803;47.916;8.074;2023-07-31T11:08:18;25.20;99.90
5560;DHT22;2803;47.916;8.074;2023-07-31T11:10:47;25.10;99.50
5560;DHT22;2803;47.916;8.074;2023-07-31T11:13:14;24.30;99.90
5560;DHT22;2803;47.916;8.074;2023-07-31T11:15:41;24.00;99.90
5560;DHT22;2803;47.916;8.074;2023-07-31T11:18:07;24.60;99.90
5560;DHT22;2803;47.916;8.074;2023-07-31T11:20:37;24.70;99.90
5560;DHT22;2803;47.916;8.074;2023-07-31T11:23:08;24.60;99.90
5560;DHT22;2803;47.916;8.074;2023-07-31T11:25:36;24.80;99.90
5560;DHT22;2803;47.916;8.074;2023-07-31T11:28:05;24.80;99.90
5560;DHT22;2803;47.916;8.074;2023-07-31T11:30:31;25.30;99.90
5560;DHT22;2803;47.916;8.074;2023-07-31T11:33:00;25.30;99.90
5560;DHT22;2803;47.916;8.074;2023-07-31T11:35:28;25.30;99.90
5560;DHT22;2803;47.916;8.074;2023-07-31T11:37:55;25.60;99.90
5560;DHT22;2803;47.916;8.074;2023-07-31T11:40:23;25.50;99.90
5560;DHT22;2803;47.916;8.074;2023-07-31T11:42:54;24.90;99.90
5560;DHT22;2803;47.916;8.074;2023-07-31T11:45:21;24.20;99.90
5560;DHT22;2803;47.916;8.074;2023-07-31T11:47:47;24.20;99.90
5560;DHT22;2803;47.916;8.074;2023-07-31T11:50:14;23.60;99.90
5560;DHT22;2803;47.916;8.074;2023-07-31T11:52:44;23.60;99.90
5560;DHT22;2803;47.916;8.074;2023-07-31T11:55:12;23.30;99.90
5560;DHT22;2803;47.916;8.074;2023-07-31T11:57:43;23.80;99.90
5560;DHT22;2803;47.916;8.074;2023-07-31T12:00:11;23.90;99.90
5560;DHT22;2803;47.916;8.074;2023-07-31T12:02:39;25.10;99.90
5560;DHT22;2803;47.916;8.074;2023-07-31T12:05:06;25.50;99.90
5560;DHT22;2803;47.916;8.074;2023-07-31T12:07:49;25.80;99.90
5560;DHT22;2803;47.916;8.074;2023-07-31T12:10:31;26.20;99.90
5560;DHT22;2803;47.916;8.074;2023-07-31T12:13:02;26.70;99.70
5560;DHT22;2803;47.916;8.074;2023-07-31T12:15:32;27.10;98.50
5560;DHT22;2803;47.916;8.074;2023-07-31T12:17:59;27.80;97.60
5560;DHT22;2803;47.916;8.074;2023-07-31T12:20:26;28.00;96.90
5560;DHT22;2803;47.916;8.074;2023-07-31T12:22:56;27.90;97.30
5560;DHT22;2803;47.916;8.074;2023-07-31T12:25:22;27.90;97.40
5560;DHT22;2803;47.916;8.074;2023-07-31T12:27:50;27.30;96.90
5560;DHT22;2803;47.916;8.074;2023-07-31T12:30:34;28.00;96.20
5560;DHT22;2803;47.916;8.074;2023-07-31T12:33:04;28.50;95.50
5560;DHT22;2803;47.916;8.074;2023-07-31T12:35:36;28.30;95.10
5560;DHT22;2803;47.916;8.074;2023-07-31T12:38:03;28.40;95.00
5560;DHT22;2803;47.916;8.074;2023-07-31T12:40:29;28.70;95.20
5560;DHT22;2803;47.916;8.074;2023-07-31T12:42:56;29.80;94.80
5560;DHT22;2803;47.916;8.074;2023-07-31T12:45:23;29.50;93.00
5560;DHT22;2803;47.916;8.074;2023-07-31T12:47:51;29.40;92.90
5560;DHT22;2803;47.916;8.074;2023-07-31T12:50:17;29.80;92.70
5560;DHT22;2803;47.916;8.074;2023-07-31T12:52:44;30.20;91.00
5560;DHT22;2803;47.916;8.074;2023-07-31T12:55:11;30.40;91.50
5560;DHT22;2803;47.916;8.074;2023-07-31T12:57:38;30.00;90.60
5560;DHT22;2803;47.916;8.074;2023-07-31T13:00:06;29.60;90.30
5560;DHT22;2803;47.916;8.074;2023-07-31T13:02:33;29.80;90.60
5560;DHT22;2803;47.916;8.074;2023-07-31T13:05:00;30.10;90.30
5560;DHT22;2803;47.916;8.074;2023-07-31T13:07:27;30.10;90.20
5560;DHT22;2803;47.916;8.074;2023-07-31T13:09:54;30.00;89.80
5560;DHT22;2803;47.916;8.074;2023-07-31T13:12:20;30.40;91.40
5560;DHT22;2803;47.916;8.074;2023-07-31T13:14:47;30.70;87.50
5560;DHT22;2803;47.916;8.074;2023-07-31T13:17:14;29.90;88.90
5560;DHT22;2803;47.916;8.074;2023-07-31T13:19:40;29.80;88.90
5560;DHT22;2803;47.916;8.074;2023-07-31T13:22:08;29.50;90.00
5560;DHT22;2803;47.916;8.074;2023-07-31T13:24:35;29.20;90.10
5560;DHT22;2803;47.916;8.074;2023-07-31T13:27:02;28.80;90.40
5560;DHT22;2803;47.916;8.074;2023-07-31T13:29:29;29.00;90.80
5560;DHT22;2803;47.916;8.074;2023-07-31T13:31:57;28.80;90.80
5560;DHT22;2803;47.916;8.074;2023-07-31T13:34:24;29.20;90.20
5560;DHT22;2803;47.916;8.074;2023-07-31T13:36:51;29.00;90.40
5560;DHT22;2803;47.916;8.074;2023-07-31T13:39:18;28.70;89.70
5560;DHT22;2803;47.916;8.074;2023-07-31T13:41:45;28.80;89.90
5560;DHT22;2803;47.916;8.074;2023-07-31T13:44:12;27.90;91.50
5560;DHT22;2803;47.916;8.074;2023-07-31T13:46:38;28.00;91.10
5560;DHT22;2803;47.916;8.074;2023-07-31T13:49:05;28.50;90.70
5560;DHT22;2803;47.916;8.074;2023-07-31T13:51:31;28.60;91.20
5560;DHT22;2803;47.916;8.074;2023-07-31T13:53:58;28.70;90.30
5560;DHT22;2803;47.916;8.074;2023-07-31T13:56:26;28.70;89.40
5560;DHT22;2803;47.916;8.074;2023-07-31T13:58:53;27.70;90.50
5560;DHT22;2803;47.916;8.074;2023-07-31T14:01:19;27.50;90.30
5560;DHT22;2803;47.916;8.074;2023-07-31T14:03:46;27.60;90.10
5560;DHT22;2803;47.916;8.074;2023-07-31T14:06:12;28.20;90.40
5560;DHT22;2803;47.916;8.074;2023-07-31T14:08:39;29.10;88.90
5560;DHT22;2803;47.916;8.074;2023-07-31T14:11:06;29.70;86.50
5560;DHT22;2803;47.916;8.074;2023-07-31T14:13:34;29.40;85.30
5560;DHT22;2803;47.916;8.074;2023-07-31T14:16:01;28.90;85.20
5560;DHT22;2803;47.916;8.074;2023-07-31T14:18:27;28.30;87.50
5560;DHT22;2803;47.916;8.074;2023-07-31T14:20:54;28.10;87.70
5560;DHT22;2803;47.916;8.074;2023-07-31T14:23:21;28.10;88.70
5560;DHT22;2803;47.916;8.074;2023-07-31T14:25:47;27.90;86.80
5560;DHT22;2803;47.916;8.074;2023-07-31T14:28:14;27.50;90.10
5560;DHT22;2803;47.916;8.074;2023-07-31T14:30:42;27.50;88.40
5560;DHT22;2803;47.916;8.074;2023-07-31T14:33:10;27.70;89.60
5560;DHT22;2803;47.916;8.074;2023-07-31T14:35:37;27.40;90.70
5560;DHT22;2803;47.916;8.074;2023-07-31T14:38:04;27.50;90.60
5560;DHT22;2803;47.916;8.074;2023-07-31T14:40:31;27.90;90.70
5560;DHT22;2803;47.916;8.074;2023-07-31T14:42:58;28.00;91.60
5560;DHT22;2803;47.916;8.074;2023-07-31T14:45:24;27.80;91.40
5560;DHT22;2803;47.916;8.074;2023-07-31T14:47:53;27.90;91.20
5560;DHT22;2803;47.916;8.074;2023-07-31T14:50:20;28.10;91.00
5560;DHT22;2803;47.916;8.074;2023-07-31T14:52:47;28.10;90.20
5560;DHT22;2803;47.916;8.074;2023-07-31T14:55:14;28.00;88.90
5560;DHT22;2803;47.916;8.074;2023-07-31T14:57:41;27.80;88.40
5560;DHT22;2803;47.916;8.074;2023-07-31T15:00:08;27.80;88.70
5560;DHT22;2803;47.916;8.074;2023-07-31T15:02:36;26.70;89.20
5560;DHT22;2803;47.916;8.074;2023-07-31T15:05:05;26.60;90.40
5560;DHT22;2803;47.916;8.074;2023-07-31T15:07:32;26.50;90.50
5560;DHT22;2803;47.916;8.074;2023-07-31T15:09:59;26.60;91.30
5560;DHT22;2803;47.916;8.074;2023-07-31T15:12:26;26.60;91.50
5560;DHT22;2803;47.916;8.074;2023-07-31T15:14:53;26.80;92.20
5560;DHT22;2803;47.916;8.074;2023-07-31T15:17:20;26.60;90.50
5560;DHT22;2803;47.916;8.074;2023-07-31T15:19:46;26.20;91.50
5560;DHT22;2803;47.916;8.074;2023-07-31T15:22:14;26.80;92.60
5560;DHT22;2803;47.916;8.074;2023-07-31T15:24:41;26.70;91.40
5560;DHT22;2803;47.916;8.074;2023-07-31T15:27:08;27.10;91.40
5560;DHT22;2803;47.916;8.074;2023-07-31T15:29:34;26.80;90.60
5560;DHT22;2803;47.916;8.074;2023-07-31T15:32:03;26.80;91.80
5560;DHT22;2803;47.916;8.074;2023-07-31T15:34:30;26.70;91.50
5560;DHT22;2803;47.916;8.074;2023-07-31T15:36:56;27.00;91.60
5560;DHT22;2803;47.916;8.074;2023-07-31T15:39:24;26.40;91.80
5560;DHT22;2803;47.916;8.074;2023-07-31T15:41:51;26.90;92.60
5560;DHT22;2803;47.916;8.074;2023-07-31T15:44:18;27.10;91.40
5560;DHT22;2803;47.916;8.074;2023-07-31T15:46:46;27.10;92.20
5560;DHT22;2803;47.916;8.074;2023-07-31T15:49:13;27.30;91.80
5560;DHT22;2803;47.916;8.074;2023-07-31T15:51:40;26.70;92.40
5560;DHT22;2803;47.916;8.074;2023-07-31T15:54:06;26.50;92.20
5560;DHT22;2803;47.916;8.074;2023-07-31T15:56:34;26.50;92.80
5560;DHT22;2803;47.916;8.074;2023-07-31T15:59:01;26.40;93.20
5560;DHT22;2803;47.916;8.074;2023-07-31T16:01:28;26.50;92.90
5560;DHT22;2803;47.916;8.074;2023-07-31T16:03:54;26.50;92.70
5560;DHT22;2803;47.916;8.074;2023-07-31T16:06:20;26.50;93.10